• Join FlightAware (Why Join?)
  • Login
  • US Flag 
09:53AM EDT


 

Airport Tracker/Info


-or-


 

Live Flight TrackerFlight Track Log ✈ CTL15 ✈ 10-Jul-2013 ✈ KMGY - KBKL

Flight Track Log - Related Links

Times and Time Zones

All times are in EDT time to prevent confusion due to time zone crossing. See the CTL15 flight status page for this flight to view local times or setup timezone preferences in your user account.

Time Position Orientation Groundspeed Altitude Reporting Facility
EDT Latitude Longitude Course Direction KTS MPH feet Rate Location/Type
07:43PM 39.6375 -84.1953 North 132 152 2,500  Level Indianapolis Center
07:44PM 39.6608 -84.1942 North 122 140 3,400 900 Climbing Indianapolis Center
07:45PM 39.6814 -84.1942 360° North 98 113 4,100 540 Climbing Indianapolis Center
07:46PM 39.6933 -84.1644 62° Northeast 123 142 4,400 240 Climbing Indianapolis Center
07:47PM 39.7247 -84.1072 54° Northeast 156 180 4,700 180 Climbing Indianapolis Center
07:48PM 39.7486 -84.0597 57° Northeast 161 185 4,900 240 Climbing Indianapolis Center
07:49PM 39.7725 -84.0122 57° Northeast 160 184 5,300 360 Climbing Indianapolis Center
07:50PM 39.7939 -83.9694 57° Northeast 153 176 5,700 300 Climbing Indianapolis Center
07:51PM 39.8200 -83.9194 56° Northeast 166 191 5,900 240 Climbing Indianapolis Center
07:52PM 39.8506 -83.8703 51° Northeast 172 198 6,200 240 Climbing Indianapolis Center
07:53PM 39.8825 -83.8239 48° Northeast 172 198 6,400 300 Climbing Indianapolis Center
07:54PM 39.9214 -83.7753 44° Northeast 169 194 6,900 300 Climbing Indianapolis Center
07:55PM 39.9500 -83.7400 43° Northeast 162 186 7,100 60 Climbing Indianapolis Center
07:56PM 39.9839 -83.6967 44° Northeast 174 200 7,100  Level Indianapolis Center
07:57PM 40.0200 -83.6508 44° Northeast 174 200 7,100 480 Level Indianapolis Center
07:58PM 40.0525 -83.6058 47° Northeast 142 163 8,200 780 Climbing Indianapolis Center
07:59PM 40.0761 -83.5756 44° Northeast 128 147 8,800 420 Climbing Indianapolis Center
08:00PM 40.1067 -83.5394 42° Northeast 132 152 9,100 120 Climbing Indianapolis Center
08:01PM 40.1428 -83.4967 42° Northeast 173 199 9,100  Level Indianapolis Center
08:02PM 40.1761 -83.4556 43° Northeast 171 197 9,100  Level Indianapolis Center
08:03PM 40.2131 -83.4125 42° Northeast 171 197 9,100  Level Indianapolis Center
08:04PM 40.2428 -83.3764 43° Northeast 176 203 9,100  Level Indianapolis Center
08:05PM 40.2853 -83.3242 43° Northeast 175 201 9,100  Level Indianapolis Center
08:06PM 40.3214 -83.2792 44° Northeast 177 204 9,200  Climbing Indianapolis Center
08:07PM 40.3600 -83.2311 43° Northeast 177 204 9,100 -60 Descending Indianapolis Center
08:08PM 40.3942 -83.1819 48° Northeast 181 208 9,100  Level Indianapolis Center
08:09PM 40.4289 -83.1417 41° Northeast 178 205 9,100  Level Indianapolis Center
08:10PM 40.4692 -83.0864 46° Northeast 178 205 9,100  Level Indianapolis Center
08:11PM 40.5067 -83.0397 43° Northeast 182 209 9,100  Level Indianapolis Center
08:12PM 40.5458 -82.9969 40° Northeast 179 206 9,100  Level Indianapolis Center
08:13PM 40.5819 -82.9503 44° Northeast 180 207 9,100  Level Indianapolis Center
08:14PM 40.6189 -82.9064 42° Northeast 178 205 9,100  Level Indianapolis Center
08:15PM 40.6569 -82.8625 41° Northeast 180 207 9,100  Level Indianapolis Center
08:16PM 40.6906 -82.8136 48° Northeast 179 206 9,100  Level Indianapolis Center
08:17PM 40.7233 -82.7639 49° Northeast 179 206 9,100  Level Indianapolis Center
08:18PM 40.7544 -82.7117 52° Northeast 179 206 9,100  Level Indianapolis Center
08:19PM 40.7911 -82.6681 42° Northeast 177 204 9,100  Level Indianapolis Center
08:20PM 40.8317 -82.6319 34° Northeast 174 200 9,100  Level Indianapolis Center
08:21PM 40.8733 -82.5972 32° Northeast 174 200 9,100  Level Indianapolis Center